createdAt,value
2019-02-11T00:01:05.157Z,99.90
2019-02-11T00:03:34.553Z,99.90
2019-02-11T00:06:04.145Z,99.90
2019-02-11T00:08:33.639Z,99.90
2019-02-11T00:11:03.286Z,99.90
2019-02-11T00:13:32.778Z,99.90
2019-02-11T00:16:02.338Z,99.90
2019-02-11T00:18:31.803Z,99.90
2019-02-11T00:21:01.290Z,99.90
2019-02-11T00:23:30.750Z,99.90
2019-02-11T00:26:00.216Z,99.90
2019-02-11T00:28:29.700Z,99.90
2019-02-11T00:30:59.247Z,99.90
2019-02-11T00:33:28.706Z,99.90
2019-02-11T00:35:58.194Z,99.90
2019-02-11T00:38:27.659Z,99.90
2019-02-11T00:40:57.148Z,99.90
2019-02-11T00:43:26.712Z,99.90
2019-02-11T00:45:56.202Z,99.90
2019-02-11T00:48:25.596Z,99.90
2019-02-11T00:50:55.053Z,99.90
2019-02-11T00:53:24.534Z,99.90
2019-02-11T00:55:54.003Z,99.90
2019-02-11T00:58:23.464Z,99.90
2019-02-11T01:00:52.950Z,99.90
2019-02-11T01:03:22.412Z,99.90
2019-02-11T01:05:51.913Z,99.90
2019-02-11T01:08:21.401Z,99.90
2019-02-11T01:10:50.862Z,99.90
2019-02-11T01:13:27.594Z,99.90
2019-02-11T01:15:51.482Z,99.90
2019-02-11T01:18:20.948Z,99.90
2019-02-11T01:20:50.414Z,99.90
2019-02-11T01:23:19.927Z,99.90
2019-02-11T01:25:49.391Z,99.90
2019-02-11T01:28:19.145Z,99.90
2019-02-11T01:30:48.643Z,99.90
2019-02-11T01:33:18.111Z,99.90
2019-02-11T01:35:47.571Z,99.90
2019-02-11T01:38:17.066Z,99.90
2019-02-11T01:40:46.533Z,99.90
2019-02-11T01:43:15.996Z,99.90
2019-02-11T01:45:45.516Z,99.90
2019-02-11T01:48:15.002Z,99.90
2019-02-11T01:50:44.447Z,99.90
2019-02-11T01:53:13.930Z,99.90
2019-02-11T01:55:43.357Z,99.90
2019-02-11T01:58:12.827Z,99.90
2019-02-11T02:00:42.311Z,99.90
2019-02-11T02:03:11.809Z,99.90
2019-02-11T02:05:41.284Z,99.90
2019-02-11T02:08:10.741Z,99.90
2019-02-11T02:10:40.224Z,99.90
2019-02-11T02:13:09.705Z,99.90
2019-02-11T02:15:39.386Z,99.90
2019-02-11T02:18:08.859Z,99.90
2019-02-11T02:20:38.326Z,99.90
2019-02-11T02:23:07.782Z,99.90
2019-02-11T02:25:37.788Z,99.90
2019-02-11T02:28:07.253Z,99.90
2019-02-11T02:30:36.712Z,99.90
2019-02-11T02:33:06.412Z,99.90
2019-02-11T02:35:35.891Z,99.90
2019-02-11T02:38:05.356Z,99.90
2019-02-11T02:40:34.777Z,99.90
2019-02-11T02:43:04.231Z,99.90
2019-02-11T02:45:33.716Z,99.90
2019-02-11T02:48:03.220Z,99.90
2019-02-11T02:50:32.683Z,99.90
2019-02-11T02:53:02.216Z,99.90
2019-02-11T02:55:31.758Z,99.90
2019-02-11T02:58:01.277Z,99.90
2019-02-11T03:00:31.083Z,99.90
2019-02-11T03:03:00.585Z,99.90
2019-02-11T03:05:30.149Z,99.90
2019-02-11T03:07:59.711Z,99.90
2019-02-11T03:10:29.202Z,99.90
2019-02-11T03:12:58.677Z,99.90
2019-02-11T03:15:28.154Z,99.90
2019-02-11T03:17:57.674Z,99.90
2019-02-11T03:20:27.157Z,99.90
2019-02-11T03:22:56.612Z,99.90
2019-02-11T03:25:26.096Z,99.90
2019-02-11T03:27:55.556Z,99.90
2019-02-11T03:30:25.015Z,99.90
2019-02-11T03:32:54.506Z,99.90
2019-02-11T03:35:23.975Z,99.90
2019-02-11T03:37:53.432Z,99.90
2019-02-11T03:40:22.975Z,99.90
2019-02-11T03:42:52.431Z,99.90
2019-02-11T03:45:21.893Z,99.90
2019-02-11T03:47:51.571Z,99.90
2019-02-11T03:50:21.143Z,99.90
2019-02-11T03:52:50.608Z,99.90
2019-02-11T03:55:20.100Z,99.90
2019-02-11T03:57:49.577Z,99.90
2019-02-11T04:00:19.050Z,99.90
2019-02-11T04:02:48.553Z,99.90
2019-02-11T04:05:18.144Z,99.90
2019-02-11T04:07:47.628Z,99.90
2019-02-11T04:10:17.147Z,99.90
2019-02-11T04:12:46.652Z,99.90
2019-02-11T04:15:16.120Z,99.90
2019-02-11T04:17:45.604Z,99.90
2019-02-11T04:20:15.168Z,99.90
2019-02-11T04:22:44.659Z,99.90
2019-02-11T04:25:14.119Z,99.90
2019-02-11T04:27:43.970Z,99.90
2019-02-11T04:30:13.498Z,99.90
2019-02-11T04:32:42.996Z,99.90
2019-02-11T04:35:12.463Z,99.90
2019-02-11T04:37:42.066Z,99.90
2019-02-11T04:40:12.338Z,99.90
2019-02-11T04:42:41.830Z,99.90
2019-02-11T04:45:11.620Z,99.90
2019-02-11T04:47:41.115Z,99.90
2019-02-11T04:50:11.081Z,99.90
2019-02-11T04:52:40.589Z,99.90
2019-02-11T04:55:10.591Z,99.90
2019-02-11T04:57:40.098Z,99.90
2019-02-11T05:00:14.618Z,99.90
2019-02-11T05:02:44.087Z,99.90
2019-02-11T05:05:13.870Z,99.90
2019-02-11T05:07:43.321Z,99.90
2019-02-11T05:10:15.631Z,99.90
2019-02-11T05:12:45.126Z,99.90
2019-02-11T05:15:14.616Z,99.90
2019-02-11T05:17:44.078Z,99.90
2019-02-11T05:20:14.064Z,99.90
2019-02-11T05:22:43.540Z,99.90
2019-02-11T05:25:13.011Z,99.90
2019-02-11T05:27:42.507Z,99.90
2019-02-11T05:30:12.475Z,99.90
2019-02-11T05:32:41.931Z,99.90
2019-02-11T05:35:11.420Z,99.90
2019-02-11T05:37:40.987Z,99.90
2019-02-11T05:40:12.596Z,99.90
2019-02-11T05:42:42.088Z,99.90
2019-02-11T05:45:11.565Z,99.90
2019-02-11T05:47:41.010Z,99.90
2019-02-11T05:50:13.898Z,99.90
2019-02-11T05:52:43.364Z,99.90
2019-02-11T05:55:12.828Z,99.90
2019-02-11T05:57:42.309Z,99.90
2019-02-11T06:00:14.463Z,99.90
2019-02-11T06:02:43.967Z,99.90
2019-02-11T06:05:13.434Z,99.90
2019-02-11T06:07:42.883Z,99.90
2019-02-11T06:10:12.589Z,99.90
2019-02-11T06:12:42.032Z,99.90
2019-02-11T06:15:11.502Z,99.90
2019-02-11T06:17:40.988Z,99.90
2019-02-11T06:20:11.091Z,99.90
2019-02-11T06:22:40.649Z,99.90
2019-02-11T06:25:10.160Z,99.90
2019-02-11T06:27:39.910Z,99.90
2019-02-11T06:30:12.787Z,99.90
2019-02-11T06:32:42.280Z,99.90
2019-02-11T06:35:11.753Z,99.90
2019-02-11T06:37:41.216Z,99.90
2019-02-11T06:40:11.500Z,99.90
2019-02-11T06:42:40.967Z,99.90
2019-02-11T06:45:13.476Z,99.90
2019-02-11T06:47:42.744Z,99.90
2019-02-11T06:50:15.231Z,99.90
2019-02-11T06:52:44.698Z,99.90
2019-02-11T06:55:14.196Z,99.90
2019-02-11T06:57:43.660Z,99.90
2019-02-11T07:00:15.818Z,99.90
2019-02-11T07:02:45.399Z,99.90
2019-02-11T07:05:14.905Z,99.90
2019-02-11T07:07:44.366Z,99.90
2019-02-11T07:10:13.795Z,99.90
2019-02-11T07:12:43.194Z,99.90
2019-02-11T07:15:21.612Z,99.90
2019-02-11T07:17:45.970Z,99.90
2019-02-11T07:20:15.425Z,99.90
2019-02-11T07:22:44.883Z,99.90
2019-02-11T07:25:14.370Z,99.90
2019-02-11T07:27:43.848Z,99.90
2019-02-11T07:30:16.402Z,99.90
2019-02-11T07:32:45.891Z,99.90
2019-02-11T07:35:15.364Z,99.90
2019-02-11T07:37:44.928Z,99.90
2019-02-11T07:40:14.416Z,99.90
2019-02-11T07:43:00.444Z,99.90
2019-02-11T07:45:31.511Z,99.90
2019-02-11T07:48:00.974Z,99.90
2019-02-11T07:50:30.455Z,99.90
2019-02-11T07:52:59.955Z,99.90
2019-02-11T07:55:29.550Z,99.90
2019-02-11T07:57:59.016Z,99.90
2019-02-11T08:00:47.888Z,99.90
2019-02-11T08:03:17.375Z,99.90
2019-02-11T08:05:51.342Z,99.90
2019-02-11T08:08:20.847Z,99.90
2019-02-11T08:10:50.304Z,99.90
2019-02-11T08:13:19.770Z,99.90
2019-02-11T08:15:49.264Z,99.90
2019-02-11T08:18:18.726Z,99.90
2019-02-11T08:20:48.199Z,99.90
2019-02-11T08:23:17.720Z,99.90
2019-02-11T08:25:47.181Z,99.90
2019-02-11T08:28:19.651Z,99.90
2019-02-11T08:31:07.214Z,99.90
2019-02-11T08:33:36.777Z,99.90
2019-02-11T08:36:06.245Z,99.90
2019-02-11T08:38:35.743Z,99.90
2019-02-11T08:41:05.208Z,99.90
2019-02-11T08:43:34.772Z,99.90
2019-02-11T08:46:04.266Z,99.90
2019-02-11T08:48:33.878Z,99.90
2019-02-11T08:51:03.339Z,99.90
2019-02-11T08:53:32.824Z,99.90
2019-02-11T08:56:03.482Z,99.90
2019-02-11T08:58:33.034Z,99.90
2019-02-11T09:01:02.641Z,99.90
2019-02-11T09:03:32.098Z,99.90
2019-02-11T09:06:01.602Z,99.90
2019-02-11T09:08:31.096Z,99.90
2019-02-11T09:11:00.573Z,99.90
2019-02-11T09:13:30.073Z,99.90
2019-02-11T09:15:59.645Z,99.90
2019-02-11T09:18:29.137Z,99.90
2019-02-11T09:20:58.629Z,99.90
2019-02-11T09:23:28.100Z,99.90
2019-02-11T09:25:57.585Z,99.90
2019-02-11T09:28:27.279Z,99.90
2019-02-11T09:30:56.888Z,99.90
2019-02-11T09:33:26.360Z,99.90
2019-02-11T09:35:55.846Z,99.90
2019-02-11T09:38:25.437Z,99.90
2019-02-11T09:40:55.003Z,99.90
2019-02-11T09:43:24.569Z,99.90
2019-02-11T09:45:54.060Z,99.90
2019-02-11T09:48:23.734Z,99.90
2019-02-11T09:50:53.192Z,99.90
2019-02-11T09:53:22.672Z,99.90
2019-02-11T09:55:52.176Z,99.90
2019-02-11T09:58:21.634Z,99.90
2019-02-11T10:00:51.173Z,99.90
2019-02-11T10:03:20.635Z,99.90
2019-02-11T10:05:50.104Z,99.90
2019-02-11T10:08:19.603Z,99.90
2019-02-11T10:10:49.076Z,99.90
2019-02-11T10:13:18.538Z,99.90
2019-02-11T10:15:48.034Z,99.90
2019-02-11T10:18:17.537Z,99.90
2019-02-11T10:20:46.912Z,99.90
2019-02-11T10:23:16.414Z,99.90
2019-02-11T10:25:45.884Z,99.90
2019-02-11T10:28:15.401Z,99.90
2019-02-11T10:30:44.910Z,99.90
2019-02-11T10:33:14.380Z,99.90
2019-02-11T10:35:44.098Z,99.90
2019-02-11T10:38:13.592Z,99.90
2019-02-11T10:40:42.994Z,99.90
2019-02-11T10:43:12.464Z,99.90
2019-02-11T10:45:49.310Z,99.90
2019-02-11T10:48:18.901Z,99.90
2019-02-11T10:50:48.355Z,98.00
2019-02-11T10:53:17.858Z,96.40
2019-02-11T10:55:47.429Z,96.10
2019-02-11T10:58:16.924Z,94.60
2019-02-11T11:00:46.611Z,92.20
2019-02-11T11:03:16.095Z,92.50
2019-02-11T11:05:45.571Z,91.30
2019-02-11T11:08:15.075Z,90.60
2019-02-11T11:10:44.542Z,90.00
2019-02-11T11:13:14.085Z,86.80
2019-02-11T11:15:43.567Z,85.20
2019-02-11T11:18:13.148Z,83.70
2019-02-11T11:20:42.644Z,79.50
2019-02-11T11:23:12.101Z,78.80
2019-02-11T11:25:41.646Z,74.60
2019-02-11T11:28:11.141Z,71.80
2019-02-11T11:30:40.604Z,71.30
2019-02-11T11:33:10.088Z,67.90
2019-02-11T11:35:39.590Z,66.20
2019-02-11T11:38:09.073Z,57.40
2019-02-11T11:40:38.541Z,50.30
2019-02-11T11:43:08.041Z,45.80
2019-02-11T11:45:37.510Z,43.10
2019-02-11T11:48:06.980Z,42.10
2019-02-11T11:50:36.478Z,42.90
2019-02-11T11:53:06.085Z,44.50
2019-02-11T11:55:35.565Z,45.90
2019-02-11T11:58:05.061Z,44.80
2019-02-11T12:00:34.950Z,43.40
2019-02-11T12:03:05.690Z,42.60
2019-02-11T12:05:35.626Z,41.60
2019-02-11T12:08:05.093Z,41.10
2019-02-11T12:10:34.579Z,38.10
2019-02-11T12:13:21.829Z,36.40
2019-02-11T12:15:35.403Z,36.90
2019-02-11T12:18:04.874Z,38.10
2019-02-11T12:20:34.579Z,38.60
2019-02-11T12:23:04.234Z,39.10
2019-02-11T12:25:33.724Z,39.80
2019-02-11T12:28:03.291Z,40.40
2019-02-11T12:30:32.773Z,40.50
2019-02-11T12:33:02.421Z,39.90
2019-02-11T12:35:31.987Z,38.80
2019-02-11T12:38:01.463Z,39.50
2019-02-11T12:40:31.000Z,40.60
2019-02-11T12:43:00.586Z,41.90
2019-02-11T12:45:30.051Z,41.60
2019-02-11T12:47:59.545Z,39.70
2019-02-11T12:50:29.080Z,39.80
2019-02-11T12:52:58.546Z,38.40
2019-02-11T12:55:28.043Z,37.70
2019-02-11T12:57:57.537Z,36.60
2019-02-11T13:00:27.188Z,36.00
2019-02-11T13:02:56.650Z,34.80
2019-02-11T13:05:43.441Z,34.20
2019-02-11T13:07:57.369Z,33.90
2019-02-11T13:10:26.910Z,35.70
2019-02-11T13:12:56.418Z,37.00
2019-02-11T13:15:57.666Z,38.00
2019-02-11T13:17:57.171Z,40.50
2019-02-11T13:20:26.893Z,39.20
2019-02-11T13:22:56.436Z,36.70
2019-02-11T13:25:25.930Z,35.40
2019-02-11T13:27:55.531Z,33.70
2019-02-11T13:30:26.144Z,32.50
2019-02-11T13:32:55.723Z,32.00
2019-02-11T13:35:25.293Z,31.80
2019-02-11T13:37:56.112Z,31.90
2019-02-11T13:40:26.017Z,31.90
2019-02-11T13:42:55.551Z,33.30
2019-02-11T13:45:25.072Z,34.00
2019-02-11T13:47:58.112Z,33.80
2019-02-11T13:50:28.590Z,34.00
2019-02-11T13:52:58.224Z,34.00
2019-02-11T13:55:30.375Z,34.00
2019-02-11T13:57:59.898Z,34.30
2019-02-11T14:00:31.352Z,33.10
2019-02-11T14:03:04.443Z,34.20
2019-02-11T14:05:34.114Z,34.50
2019-02-11T14:08:03.616Z,35.60
2019-02-11T14:10:33.095Z,37.80
2019-02-11T14:13:03.014Z,39.60
2019-02-11T14:15:32.766Z,42.20
2019-02-11T14:18:12.891Z,42.90
2019-02-11T14:20:39.337Z,43.30
2019-02-11T14:23:08.982Z,44.40
2019-02-11T14:25:44.901Z,45.60
2019-02-11T14:28:09.773Z,46.70
2019-02-11T14:30:39.316Z,47.50
2019-02-11T14:33:09.082Z,47.70
2019-02-11T14:35:38.537Z,48.10
2019-02-11T14:38:07.980Z,49.50
2019-02-11T14:40:37.552Z,50.40
2019-02-11T14:43:06.982Z,51.30
2019-02-11T14:45:36.472Z,51.70
2019-02-11T14:48:05.942Z,51.60
2019-02-11T14:50:35.405Z,52.40
2019-02-11T14:53:04.887Z,52.30
2019-02-11T14:55:34.390Z,53.00
2019-02-11T14:58:03.865Z,53.30
2019-02-11T15:00:33.333Z,53.70
2019-02-11T15:03:02.924Z,54.00
2019-02-11T15:05:32.398Z,54.20
2019-02-11T15:08:01.895Z,53.80
2019-02-11T15:10:31.349Z,53.90
2019-02-11T15:13:00.827Z,54.30
2019-02-11T15:15:30.320Z,54.80
2019-02-11T15:17:59.786Z,53.70
2019-02-11T15:20:29.244Z,53.60
2019-02-11T15:22:58.737Z,54.10
2019-02-11T15:25:28.201Z,54.40
2019-02-11T15:27:57.695Z,54.40
2019-02-11T15:30:27.384Z,54.20
2019-02-11T15:32:56.874Z,54.30
2019-02-11T15:35:26.348Z,54.30
2019-02-11T15:37:55.844Z,53.90
2019-02-11T15:40:25.292Z,53.80
2019-02-11T15:42:54.765Z,54.50
2019-02-11T15:45:24.256Z,55.00
2019-02-11T15:47:53.735Z,55.40
2019-02-11T15:50:23.206Z,55.30
2019-02-11T15:52:52.818Z,54.80
2019-02-11T15:55:22.504Z,55.50
2019-02-11T15:57:52.003Z,55.40
2019-02-11T16:00:23.828Z,54.70
2019-02-11T16:02:53.380Z,54.70
2019-02-11T16:05:22.881Z,55.50
2019-02-11T16:07:52.378Z,55.30
2019-02-11T16:10:26.164Z,56.30
2019-02-11T16:12:55.600Z,56.00
2019-02-11T16:15:25.073Z,56.20
2019-02-11T16:17:54.607Z,56.00
2019-02-11T16:20:24.104Z,57.00
2019-02-11T16:22:53.567Z,56.30
2019-02-11T16:25:23.072Z,56.60
2019-02-11T16:27:52.545Z,57.10
2019-02-11T16:30:22.041Z,57.70
2019-02-11T16:32:51.672Z,58.00
2019-02-11T16:35:21.072Z,58.20
2019-02-11T16:37:50.483Z,58.40
2019-02-11T16:40:26.430Z,58.70
2019-02-11T16:42:55.885Z,59.10
2019-02-11T16:45:25.350Z,59.00
2019-02-11T16:47:54.941Z,58.10
2019-02-11T16:50:24.406Z,58.40
2019-02-11T16:52:53.889Z,58.70
2019-02-11T16:55:23.366Z,58.50
2019-02-11T16:57:52.842Z,59.10
2019-02-11T17:00:22.310Z,58.70
2019-02-11T17:02:51.804Z,59.20
2019-02-11T17:05:21.377Z,59.70
2019-02-11T17:07:50.840Z,62.20
2019-02-11T17:10:20.375Z,60.50
2019-02-11T17:12:49.841Z,59.60
2019-02-11T17:15:20.521Z,59.50
2019-02-11T17:17:50.008Z,59.80
2019-02-11T17:20:19.471Z,60.30
2019-02-11T17:22:48.942Z,60.60
2019-02-11T17:25:18.433Z,60.90
2019-02-11T17:27:47.893Z,61.50
2019-02-11T17:30:30.904Z,61.80
2019-02-11T17:33:00.390Z,61.90
2019-02-11T17:35:29.867Z,62.00
2019-02-11T17:37:59.362Z,62.80
2019-02-11T17:40:29.178Z,63.20
2019-02-11T17:42:58.821Z,62.50
2019-02-11T17:45:30.760Z,63.30
2019-02-11T17:48:00.215Z,63.80
2019-02-11T17:50:29.804Z,64.40
2019-02-11T17:53:09.653Z,65.00
2019-02-11T17:55:39.125Z,66.20
2019-02-11T17:58:08.599Z,65.80
2019-02-11T18:00:46.257Z,66.20
2019-02-11T18:03:15.728Z,67.20
2019-02-11T18:05:45.192Z,67.20
2019-02-11T18:08:14.680Z,67.50
2019-02-11T18:10:44.137Z,68.00
2019-02-11T18:13:13.600Z,68.00
2019-02-11T18:15:43.094Z,68.20
2019-02-11T18:18:12.566Z,68.90
2019-02-11T18:20:42.056Z,68.90
2019-02-11T18:23:11.559Z,69.80
2019-02-11T18:25:41.111Z,69.70
2019-02-11T18:28:10.726Z,70.10
2019-02-11T18:30:40.192Z,70.00
2019-02-11T18:33:09.680Z,70.90
2019-02-11T18:35:39.316Z,72.50
2019-02-11T18:38:08.886Z,71.90
2019-02-11T18:40:38.355Z,71.60
2019-02-11T18:43:07.969Z,71.90
2019-02-11T18:45:37.353Z,69.90
2019-02-11T18:48:06.815Z,69.10
2019-02-11T18:50:36.322Z,68.80
2019-02-11T18:53:05.770Z,69.20
2019-02-11T18:55:35.235Z,69.60
2019-02-11T18:58:04.726Z,68.90
2019-02-11T19:00:34.202Z,68.40
2019-02-11T19:03:03.688Z,68.70
2019-02-11T19:05:33.153Z,69.50
2019-02-11T19:08:02.731Z,69.40
2019-02-11T19:10:32.206Z,69.30
2019-02-11T19:13:01.606Z,69.90
2019-02-11T19:15:31.075Z,69.50
2019-02-11T19:18:00.604Z,69.10
2019-02-11T19:20:30.061Z,68.80
2019-02-11T19:22:59.642Z,68.70
2019-02-11T19:25:30.099Z,70.10
2019-02-11T19:27:59.572Z,70.90
2019-02-11T19:30:29.039Z,70.80
2019-02-11T19:32:58.545Z,69.40
2019-02-11T19:35:28.024Z,69.30
2019-02-11T19:37:57.495Z,69.50
2019-02-11T19:40:27.011Z,70.10
2019-02-11T19:42:56.518Z,69.30
2019-02-11T19:45:26.002Z,68.90
2019-02-11T19:47:55.417Z,68.20
2019-02-11T19:50:25.007Z,68.60
2019-02-11T19:52:54.462Z,68.30
2019-02-11T19:55:23.947Z,69.10
2019-02-11T19:57:53.413Z,69.60
2019-02-11T20:00:25.992Z,69.60
2019-02-11T20:02:55.602Z,68.80
2019-02-11T20:05:25.067Z,69.10
2019-02-11T20:07:54.531Z,68.90
2019-02-11T20:10:25.126Z,69.50
2019-02-11T20:12:54.580Z,69.60
2019-02-11T20:15:32.070Z,69.10
2019-02-11T20:18:01.548Z,68.80
2019-02-11T20:20:31.011Z,69.50
2019-02-11T20:23:00.496Z,68.80
2019-02-11T20:25:29.957Z,68.60
2019-02-11T20:27:59.449Z,68.50
2019-02-11T20:30:32.525Z,68.50
2019-02-11T20:33:02.004Z,68.90
2019-02-11T20:35:31.469Z,69.00
2019-02-11T20:38:01.183Z,69.80
2019-02-11T20:40:35.229Z,68.90
2019-02-11T20:43:04.820Z,69.60
2019-02-11T20:45:34.292Z,70.40
2019-02-11T20:48:03.747Z,71.00
2019-02-11T20:50:33.239Z,71.00
2019-02-11T20:53:02.742Z,71.10
2019-02-11T20:55:32.219Z,71.60
2019-02-11T20:58:02.109Z,72.30
2019-02-11T21:00:32.086Z,72.90
2019-02-11T21:03:08.191Z,73.40
2019-02-11T21:05:33.198Z,72.50
2019-02-11T21:08:02.692Z,74.40
2019-02-11T21:10:32.161Z,74.00
2019-02-11T21:13:01.731Z,72.00
2019-02-11T21:15:31.395Z,72.50
2019-02-11T21:18:00.877Z,72.30
2019-02-11T21:20:42.399Z,72.90
2019-02-11T21:23:12.268Z,73.20
2019-02-11T21:25:41.854Z,73.90
2019-02-11T21:28:11.563Z,73.30
2019-02-11T21:30:41.037Z,72.10
2019-02-11T21:33:10.535Z,72.50
2019-02-11T21:35:40.014Z,72.90
2019-02-11T21:38:09.484Z,73.40
2019-02-11T21:40:38.972Z,72.50
2019-02-11T21:43:08.451Z,73.50
2019-02-11T21:45:37.944Z,72.40
2019-02-11T21:48:07.455Z,73.70
2019-02-11T21:50:36.964Z,74.10
2019-02-11T21:53:06.428Z,75.00
2019-02-11T21:55:35.916Z,74.60
2019-02-11T21:58:05.381Z,74.90
2019-02-11T22:00:34.874Z,74.90
2019-02-11T22:03:04.378Z,74.90
2019-02-11T22:05:33.846Z,74.70
2019-02-11T22:08:03.308Z,75.00
2019-02-11T22:10:32.801Z,75.10
2019-02-11T22:13:02.262Z,75.90
2019-02-11T22:15:31.739Z,76.70
2019-02-11T22:18:01.237Z,76.70
2019-02-11T22:20:34.645Z,77.70
2019-02-11T22:23:02.009Z,77.70
2019-02-11T22:25:31.578Z,78.10
2019-02-11T22:28:01.054Z,78.90
2019-02-11T22:30:30.573Z,79.20
2019-02-11T22:33:00.052Z,78.40
2019-02-11T22:35:29.522Z,78.20
2019-02-11T22:37:58.985Z,78.20
2019-02-11T22:40:28.474Z,78.60
2019-02-11T22:42:58.027Z,79.70
2019-02-11T22:45:29.192Z,80.10
2019-02-11T22:47:58.681Z,80.90
2019-02-11T22:50:28.143Z,81.60
2019-02-11T22:52:57.614Z,81.60
2019-02-11T22:55:27.132Z,82.20
2019-02-11T22:57:56.693Z,81.90
2019-02-11T23:00:46.488Z,80.80
2019-02-11T23:03:16.138Z,80.70
2019-02-11T23:05:45.600Z,81.30
2019-02-11T23:08:15.100Z,81.80
2019-02-11T23:10:44.543Z,82.40
2019-02-11T23:13:13.937Z,82.70
2019-02-11T23:15:43.531Z,83.60
2019-02-11T23:18:13.040Z,84.10
2019-02-11T23:20:42.487Z,84.90
2019-02-11T23:23:12.060Z,84.90
2019-02-11T23:25:41.541Z,83.90
2019-02-11T23:28:11.074Z,85.50
2019-02-11T23:30:40.536Z,88.00
2019-02-11T23:33:10.007Z,87.80
2019-02-11T23:35:39.485Z,88.30
2019-02-11T23:38:08.946Z,88.20
2019-02-11T23:40:38.410Z,88.70
2019-02-11T23:43:07.904Z,89.00
2019-02-11T23:45:37.366Z,90.00
2019-02-11T23:48:06.825Z,90.30
2019-02-11T23:50:36.319Z,86.70
2019-02-11T23:53:05.799Z,84.10
2019-02-11T23:55:35.400Z,83.50
2019-02-11T23:58:04.888Z,83.40
